Aviation Digital Data Service (ADDS)

Output produced by METARs form (1157 UTC 26 March 2019)
found at http://www.aviationweather.gov/metar/data/
 
KPAE 261132Z 2612/2712 17010KT P6SM SCT015 BKN045 BKN080 
     FM262100 VRB03KT P6SM SCT050 BKN090 
     FM270300 01008KT P6SM SCT250
       
TAF AMD KPAM 261055Z 2610/2716 36006KT 9999 FEW010 SCT060 QNH3000INS 
     BECMG 2614/2615 36012G18KT 9999 FEW030 SCT060 QNH3006INS 
     BECMG 2702/2703 36015G25KT 9999 SCT060 QNH3012INS 
     BECMG 2711/2712 03015G25KT 9999 SCT010 BKN020 QNH3018INS TX21/2621Z
TN16/2612Z
       
KPBF 261136Z 2612/2712 02008KT P6SM SCT040 
     FM270000 05004KT P6SM SKC
       
KPBG 261120Z 2612/2712 VRB04KT P6SM SKC 
     FM261400 31006KT P6SM SKC
       
KPBI 261154Z 2612/2712 30007KT P6SM SCT015 
     FM262200 04008KT P6SM VCSH SCT035 
     FM270300 32003KT P6SM SCT030
       
KPDK 261120Z 2612/2712 32007KT P6SM SCT012 BKN035 
     TEMPO 2612/2615 BKN012 
     FM261500 01007KT P6SM VCSH SCT015 OVC030 
     TEMPO 2619/2623 -SHRA 
     FM270000 05004KT P6SM SCT025 BKN040 
     FM270500 06003KT P6SM SCT050
       
KPDT 261132Z 2612/2712 19003KT P6SM OVC060 
     FM261500 22008KT P6SM SCT250 
     FM270900 11005KT P6SM OVC100
       
KPDX 261134Z 2612/2712 VRB04KT P6SM OVC050 
     FM261600 13004KT P6SM SCT025 BKN045 
     FM262000 VRB03KT P6SM FEW045 
     FM262300 33006KT P6SM SCT250 
     FM270500 08005KT P6SM SCT250
       
KPGA 261138Z 2612/2712 VRB05KT P6SM SCT250
       
KPGD 261137Z 2612/2712 35004KT P6SM SCT008 BKN050 
     TEMPO 2612/2615 BKN008 
     FM261500 32007KT P6SM SCT025 
     FM261800 30011KT P6SM FEW040 
     FM270200 32006KT P6SM SKC
       
KPGV 261130Z 2612/2712 02014G22KT P6SM BKN015 
     FM261500 02015G22KT P6SM BKN050 
     FM261700 02015G22KT P6SM SKC 
     FM262300 03005KT P6SM SKC AMD LTD TO CLD VIS AND WIND
       
KPHF 261120Z 2612/2712 02010G22KT P6SM BKN020 BKN050 
     FM261300 02012G24KT P6SM BKN070 
     FM261500 02014G24KT P6SM SCT200 
     FM262300 03011KT P6SM SKC 
     FM270300 04003KT P6SM SKC
       
KPHL 261120Z 2612/2718 01015G20KT P6SM SKC 
     FM261800 01010KT P6SM SKC 
     FM270000 36007KT P6SM SKC 
     FM270900 03005KT P6SM SKC 
     FM271500 09005KT P6SM SKC
       
KPHX 261137Z 2612/2718 11005KT P6SM SCT250 
     FM262100 25005KT P6SM BKN250 
     FM270700 10005KT P6SM BKN250
       
KPIA 261120Z 2612/2712 06006KT P6SM SCT250
       
KPIB 261120Z 2612/2712 36011KT P6SM BKN025 
     FM261600 34012G19KT P6SM SCT050 
     FM270000 34006KT P6SM SKC
       
KPIE 261137Z 2612/2712 32007KT P6SM SCT010 
     FM261400 31008KT P6SM SCT025 
     FM261800 30011KT P6SM FEW040 
     FM270200 32007KT P6SM FEW030 
     FM271100 36012KT P6SM SCT010 BKN030
       
KPIH 261120Z 2612/2712 VRB06KT P6SM BKN200 WS010/17025KT 
     FM261800 22011KT P6SM BKN200
       
KPIR 261125Z 2612/2712 13005KT P6SM OVC005 
     FM261600 14007KT P6SM SCT021 
     FM270500 16005KT P6SM SCT200 WS020/23035KT 
     FM271000 26005KT 6SM BR SCT130
       
KPIT 261121Z 2612/2718 36007KT P6SM SKC 
     FM271500 15003KT P6SM SKC
       
KPKB 261120Z 2612/2712 01007KT P6SM SKC
       
KPMD 261123Z 2612/2712 VRB03KT P6SM BKN200 
     FM261900 27010KT P6SM BKN150 
     FM262200 25015G25KT P6SM SCT080 OVC150 
     FM270200 25012KT P6SM SCT050 OVC100
       
KPNA 261121Z 2612/2712 30006KT P6SM BKN200 
     FM270300 30006KT P6SM SCT110 BKN200 AMD LTD TO CLD VIS AND WIND
       
KPNE 261120Z 2612/2712 01010G18KT P6SM SKC 
     FM261800 01010KT P6SM SKC 
     FM262300 36005KT P6SM SKC
       
KPNS 261120Z 2612/2712 34011KT P6SM SKC 
     FM261500 34012G18KT P6SM FEW030 
     FM270000 35008KT P6SM SCT050
       
TAF AMD KPOB 261142Z 2611/2715 03009KT 9999 SCT007 BKN015 QNH2990INS 
     TEMPO 2611/2613 BKN008 
     BECMG 2612/2613 03015G25KT 9999 BKN009 OVC020 QNH3004INS 
     BECMG 2614/2615 03015G25KT 9999 BKN020 QNH3006INS 
     BECMG 2616/2617 03012G18KT 9999 BKN030 QNH3014INS 
     BECMG 2619/2620 04009KT 9999 SKC QNH3018INS 
     BECMG 2711/2712 02012G20KT 9999 SKC QNH3025INS TX16/2622Z TN06/2611Z
       
KPOU 261122Z 2612/2712 01004KT P6SM SKC 
     FM261400 35008KT P6SM SKC 
     FM270000 35003KT P6SM SKC
       
KPQI 261120Z 2612/2712 31006KT P6SM SKC 
     FM261500 29012G22KT P6SM SCT060 
     FM262300 30007KT P6SM SKC
       
KPRB 261123Z 2612/2712 VRB03KT P6SM OVC200 
     FM262200 21008KT P6SM BKN050 OVC120 
     FM270300 VRB03KT P6SM SCT025 OVC050 
     FM270900 18008KT P6SM BKN025 OVC050 
     PROB30 2709/2712 -SHRA
       
KPRC 261138Z 2612/2712 18010KT P6SM FEW250 
     FM261900 19010G16KT P6SM SCT250 
     FM270200 19005KT P6SM BKN200
       
KPSC 261132Z 2612/2712 22005KT P6SM OVC120 
     FM261800 34007KT P6SM SCT090 
     FM270600 30006KT P6SM BKN250 
     FM271100 34006KT P6SM BKN100
       
KPSF 261122Z 2612/2712 30005KT P6SM SKC 
     FM261300 32010G17KT P6SM SKC 
     FM270000 31007KT P6SM SKC
       
KPSM 261120Z 2612/2712 31010KT P6SM SKC 
     FM270500 VRB04KT P6SM SKC
       
KPSP 261122Z 2612/2712 VRB05KT P6SM SCT250 
     FM270000 34008KT P6SM BKN200
       
KPUB 261120Z 2612/2712 VRB03KT P6SM OVC008 
     FM261400 VRB06KT P6SM SCT015 
     FM261600 VRB06KT P6SM SKC 
     FM261900 13011KT P6SM SKC 
     FM270300 28006KT P6SM BKN150
       
KPUW 261120Z 2612/2712 25009KT P6SM VCSH SCT040 BKN060 OVC090 
     FM261800 22010G14KT P6SM SCT030 
     FM270200 VRB03KT P6SM SKC
       
KPVD 261121Z 2612/2712 02011KT P6SM SCT060 BKN300 
     FM270200 35007KT P6SM SKC
       
KPVU 261120Z 2612/2712 14006KT P6SM BKN200 
     TEMPO 2616/2618 15012G20KT 
     FM261900 24011KT P6SM BKN200 
     FM270300 14006KT P6SM SCT200
       
KPWM 261120Z 2612/2712 32010KT P6SM SKC 
     FM262300 VRB04KT P6SM SKC
       
KPWT 261132Z 2612/2712 19006KT P6SM -SHRA BKN015 OVC030 
     FM261500 19006KT P6SM SCT030 BKN045 BKN080 
     FM262100 VRB03KT P6SM SCT050 BKN090 
     FM270400 04006KT P6SM SCT250